sensor_id;sensor_type;location;lat;lon;timestamp;temperature;humidity
67870;DHT22;54673;52.262;6.830;2023-02-12T00:01:09;15.60;54.70
67870;DHT22;54673;52.262;6.830;2023-02-12T00:03:35;15.60;54.60
67870;DHT22;54673;52.262;6.830;2023-02-12T00:06:02;15.60;54.60
67870;DHT22;54673;52.262;6.830;2023-02-12T00:08:28;15.60;54.50
67870;DHT22;54673;52.262;6.830;2023-02-12T00:10:53;15.60;54.60
67870;DHT22;54673;52.262;6.830;2023-02-12T00:13:19;15.60;54.70
67870;DHT22;54673;52.262;6.830;2023-02-12T00:15:44;15.50;54.60
67870;DHT22;54673;52.262;6.830;2023-02-12T00:18:10;15.50;54.70
67870;DHT22;54673;52.262;6.830;2023-02-12T00:20:36;15.50;54.70
67870;DHT22;54673;52.262;6.830;2023-02-12T00:23:03;15.50;54.70
67870;DHT22;54673;52.262;6.830;2023-02-12T00:25:28;15.50;54.70
67870;DHT22;54673;52.262;6.830;2023-02-12T00:27:54;15.50;54.70
67870;DHT22;54673;52.262;6.830;2023-02-12T00:30:20;15.20;54.50
67870;DHT22;54673;52.262;6.830;2023-02-12T00:32:45;15.60;54.70
67870;DHT22;54673;52.262;6.830;2023-02-12T00:35:11;15.50;54.60
67870;DHT22;54673;52.262;6.830;2023-02-12T00:37:37;15.50;54.70
67870;DHT22;54673;52.262;6.830;2023-02-12T00:40:03;15.50;54.70
67870;DHT22;54673;52.262;6.830;2023-02-12T00:42:29;15.50;54.60
67870;DHT22;54673;52.262;6.830;2023-02-12T00:44:54;15.50;54.60
67870;DHT22;54673;52.262;6.830;2023-02-12T00:47:20;15.50;54.70
67870;DHT22;54673;52.262;6.830;2023-02-12T00:49:45;15.40;54.70
67870;DHT22;54673;52.262;6.830;2023-02-12T00:52:11;15.50;54.70
67870;DHT22;54673;52.262;6.830;2023-02-12T00:54:37;15.50;54.80
67870;DHT22;54673;52.262;6.830;2023-02-12T00:57:02;15.40;54.70
67870;DHT22;54673;52.262;6.830;2023-02-12T00:59:28;15.40;54.80
67870;DHT22;54673;52.262;6.830;2023-02-12T01:01:54;15.40;54.80
67870;DHT22;54673;52.262;6.830;2023-02-12T01:04:21;15.40;54.80
67870;DHT22;54673;52.262;6.830;2023-02-12T01:06:47;15.40;54.70
67870;DHT22;54673;52.262;6.830;2023-02-12T01:09:13;15.40;54.70
67870;DHT22;54673;52.262;6.830;2023-02-12T01:11:39;15.40;54.80
67870;DHT22;54673;52.262;6.830;2023-02-12T01:14:05;15.40;54.80
67870;DHT22;54673;52.262;6.830;2023-02-12T01:16:32;15.40;54.90
67870;DHT22;54673;52.262;6.830;2023-02-12T01:19:00;15.40;54.80
67870;DHT22;54673;52.262;6.830;2023-02-12T01:21:28;15.40;54.90
67870;DHT22;54673;52.262;6.830;2023-02-12T01:23:55;15.40;54.80
67870;DHT22;54673;52.262;6.830;2023-02-12T01:26:21;15.50;54.80
67870;DHT22;54673;52.262;6.830;2023-02-12T01:28:52;15.40;54.70
67870;DHT22;54673;52.262;6.830;2023-02-12T01:31:20;15.40;54.70
67870;DHT22;54673;52.262;6.830;2023-02-12T01:33:47;15.40;54.70
67870;DHT22;54673;52.262;6.830;2023-02-12T01:36:13;15.40;54.70
67870;DHT22;54673;52.262;6.830;2023-02-12T01:38:39;15.40;54.80
67870;DHT22;54673;52.262;6.830;2023-02-12T01:41:14;15.40;54.70
67870;DHT22;54673;52.262;6.830;2023-02-12T01:43:40;15.30;54.90
67870;DHT22;54673;52.262;6.830;2023-02-12T01:46:07;15.30;54.80
67870;DHT22;54673;52.262;6.830;2023-02-12T01:48:37;15.30;54.80
67870;DHT22;54673;52.262;6.830;2023-02-12T01:51:04;15.30;54.80
67870;DHT22;54673;52.262;6.830;2023-02-12T01:53:44;15.30;54.80
67870;DHT22;54673;52.262;6.830;2023-02-12T01:56:12;14.20;54.40
67870;DHT22;54673;52.262;6.830;2023-02-12T01:58:40;15.20;55.00
67870;DHT22;54673;52.262;6.830;2023-02-12T02:01:10;15.30;54.90
67870;DHT22;54673;52.262;6.830;2023-02-12T02:03:38;14.80;54.70
67870;DHT22;54673;52.262;6.830;2023-02-12T02:06:20;15.30;54.90
67870;DHT22;54673;52.262;6.830;2023-02-12T02:08:47;15.30;54.90
67870;DHT22;54673;52.262;6.830;2023-02-12T02:11:13;15.30;54.90
67870;DHT22;54673;52.262;6.830;2023-02-12T02:13:57;15.20;54.80
67870;DHT22;54673;52.262;6.830;2023-02-12T02:16:50;15.20;54.80
67870;DHT22;54673;52.262;6.830;2023-02-12T02:19:30;15.30;54.90
67870;DHT22;54673;52.262;6.830;2023-02-12T02:30:31;15.30;54.90
67870;DHT22;54673;52.262;6.830;2023-02-12T02:35:44;15.20;54.90
67870;DHT22;54673;52.262;6.830;2023-02-12T02:38:20;15.20;54.80
67870;DHT22;54673;52.262;6.830;2023-02-12T02:41:14;15.20;54.80
67870;DHT22;54673;52.262;6.830;2023-02-12T02:43:48;15.20;54.90
67870;DHT22;54673;52.262;6.830;2023-02-12T02:46:26;15.20;54.90
67870;DHT22;54673;52.262;6.830;2023-02-12T02:48:55;15.20;54.80
67870;DHT22;54673;52.262;6.830;2023-02-12T02:51:29;15.20;54.80
67870;DHT22;54673;52.262;6.830;2023-02-12T02:54:11;15.20;54.80
67870;DHT22;54673;52.262;6.830;2023-02-12T02:56:41;15.20;54.80
67870;DHT22;54673;52.262;6.830;2023-02-12T02:59:11;15.20;54.70
67870;DHT22;54673;52.262;6.830;2023-02-12T03:01:50;15.20;54.80
67870;DHT22;54673;52.262;6.830;2023-02-12T03:05:08;15.20;54.80
67870;DHT22;54673;52.262;6.830;2023-02-12T03:07:20;15.20;54.80
67870;DHT22;54673;52.262;6.830;2023-02-12T03:09:53;15.20;54.80
67870;DHT22;54673;52.262;6.830;2023-02-12T03:13:08;15.10;54.80
67870;DHT22;54673;52.262;6.830;2023-02-12T03:15:13;15.10;54.80
67870;DHT22;54673;52.262;6.830;2023-02-12T03:17:44;15.10;54.80
67870;DHT22;54673;52.262;6.830;2023-02-12T03:22:47;15.10;54.80
67870;DHT22;54673;52.262;6.830;2023-02-12T03:25:19;15.10;54.80
67870;DHT22;54673;52.262;6.830;2023-02-12T03:27:53;15.10;54.70
67870;DHT22;54673;52.262;6.830;2023-02-12T03:30:23;15.20;54.80
67870;DHT22;54673;52.262;6.830;2023-02-12T03:33:00;15.10;54.80
67870;DHT22;54673;52.262;6.830;2023-02-12T03:35:41;15.10;54.80
67870;DHT22;54673;52.262;6.830;2023-02-12T03:38:35;15.10;54.80
67870;DHT22;54673;52.262;6.830;2023-02-12T03:41:23;15.10;54.80
67870;DHT22;54673;52.262;6.830;2023-02-12T03:43:53;15.10;54.80
67870;DHT22;54673;52.262;6.830;2023-02-12T03:46:40;15.10;54.80
67870;DHT22;54673;52.262;6.830;2023-02-12T03:49:21;15.10;54.80
67870;DHT22;54673;52.262;6.830;2023-02-12T03:51:47;15.10;55.70
67870;DHT22;54673;52.262;6.830;2023-02-12T03:54:16;15.10;54.80
67870;DHT22;54673;52.262;6.830;2023-02-12T03:56:51;15.10;54.80
67870;DHT22;54673;52.262;6.830;2023-02-12T03:59:19;15.00;54.80
67870;DHT22;54673;52.262;6.830;2023-02-12T04:01:47;15.10;54.80
67870;DHT22;54673;52.262;6.830;2023-02-12T04:04:13;15.00;54.90
67870;DHT22;54673;52.262;6.830;2023-02-12T04:06:39;15.00;54.80
67870;DHT22;54673;52.262;6.830;2023-02-12T04:09:08;15.10;54.90
67870;DHT22;54673;52.262;6.830;2023-02-12T04:14:40;15.10;54.80
67870;DHT22;54673;52.262;6.830;2023-02-12T04:17:31;15.10;54.80
67870;DHT22;54673;52.262;6.830;2023-02-12T04:20:17;15.00;54.80
67870;DHT22;54673;52.262;6.830;2023-02-12T04:22:58;15.00;54.80
67870;DHT22;54673;52.262;6.830;2023-02-12T04:30:53;15.00;54.80
67870;DHT22;54673;52.262;6.830;2023-02-12T04:33:21;15.00;54.90
67870;DHT22;54673;52.262;6.830;2023-02-12T04:36:23;15.00;54.80
67870;DHT22;54673;52.262;6.830;2023-02-12T04:38:53;15.00;54.90
67870;DHT22;54673;52.262;6.830;2023-02-12T04:41:20;15.00;54.90
67870;DHT22;54673;52.262;6.830;2023-02-12T04:43:45;15.00;54.90
67870;DHT22;54673;52.262;6.830;2023-02-12T04:46:11;15.00;54.90
67870;DHT22;54673;52.262;6.830;2023-02-12T04:48:46;15.00;55.00
67870;DHT22;54673;52.262;6.830;2023-02-12T04:51:14;14.90;54.80
67870;DHT22;54673;52.262;6.830;2023-02-12T04:53:40;15.00;55.00
67870;DHT22;54673;52.262;6.830;2023-02-12T04:56:09;15.00;54.90
67870;DHT22;54673;52.262;6.830;2023-02-12T04:58:35;15.00;54.90
67870;DHT22;54673;52.262;6.830;2023-02-12T05:01:02;15.00;54.80
67870;DHT22;54673;52.262;6.830;2023-02-12T05:03:27;15.00;54.90
67870;DHT22;54673;52.262;6.830;2023-02-12T05:05:53;15.00;54.80
67870;DHT22;54673;52.262;6.830;2023-02-12T05:08:18;15.00;54.80
67870;DHT22;54673;52.262;6.830;2023-02-12T05:10:44;15.00;54.80
67870;DHT22;54673;52.262;6.830;2023-02-12T05:13:09;14.90;54.70
67870;DHT22;54673;52.262;6.830;2023-02-12T05:15:38;15.00;54.70
67870;DHT22;54673;52.262;6.830;2023-02-12T05:18:03;14.90;54.70
67870;DHT22;54673;52.262;6.830;2023-02-12T05:20:29;14.90;54.80
67870;DHT22;54673;52.262;6.830;2023-02-12T05:22:54;14.90;54.80
67870;DHT22;54673;52.262;6.830;2023-02-12T05:25:20;14.90;54.80
67870;DHT22;54673;52.262;6.830;2023-02-12T05:27:45;14.90;54.90
67870;DHT22;54673;52.262;6.830;2023-02-12T05:30:11;14.90;54.70
67870;DHT22;54673;52.262;6.830;2023-02-12T05:32:37;14.90;54.70
67870;DHT22;54673;52.262;6.830;2023-02-12T05:35:03;14.90;54.80
67870;DHT22;54673;52.262;6.830;2023-02-12T05:37:28;14.90;54.80
67870;DHT22;54673;52.262;6.830;2023-02-12T05:39:55;14.90;54.80
67870;DHT22;54673;52.262;6.830;2023-02-12T05:42:21;14.90;54.80
67870;DHT22;54673;52.262;6.830;2023-02-12T05:44:46;14.90;54.80
67870;DHT22;54673;52.262;6.830;2023-02-12T05:47:12;14.90;54.90
67870;DHT22;54673;52.262;6.830;2023-02-12T05:49:38;14.90;54.90
67870;DHT22;54673;52.262;6.830;2023-02-12T05:52:03;14.90;54.80
67870;DHT22;54673;52.262;6.830;2023-02-12T05:54:29;14.90;55.60
67870;DHT22;54673;52.262;6.830;2023-02-12T05:56:54;14.90;54.70
67870;DHT22;54673;52.262;6.830;2023-02-12T05:59:22;14.90;54.70
67870;DHT22;54673;52.262;6.830;2023-02-12T06:01:49;14.90;54.70
67870;DHT22;54673;52.262;6.830;2023-02-12T06:04:21;14.90;54.80
67870;DHT22;54673;52.262;6.830;2023-02-12T06:06:48;14.90;54.60
67870;DHT22;54673;52.262;6.830;2023-02-12T06:09:14;14.90;54.60
67870;DHT22;54673;52.262;6.830;2023-02-12T06:11:40;14.90;54.50
67870;DHT22;54673;52.262;6.830;2023-02-12T06:14:08;14.90;54.50
67870;DHT22;54673;52.262;6.830;2023-02-12T06:16:35;14.90;54.60
67870;DHT22;54673;52.262;6.830;2023-02-12T06:19:03;14.90;54.60
67870;DHT22;54673;52.262;6.830;2023-02-12T06:21:30;14.90;54.60
67870;DHT22;54673;52.262;6.830;2023-02-12T06:23:56;14.90;54.60
67870;DHT22;54673;52.262;6.830;2023-02-12T06:26:23;14.90;54.60
67870;DHT22;54673;52.262;6.830;2023-02-12T06:28:49;14.80;54.50
67870;DHT22;54673;52.262;6.830;2023-02-12T06:31:29;14.80;54.70
67870;DHT22;54673;52.262;6.830;2023-02-12T06:33:56;14.80;54.70
67870;DHT22;54673;52.262;6.830;2023-02-12T06:36:23;14.80;54.70
67870;DHT22;54673;52.262;6.830;2023-02-12T06:38:49;14.80;54.60
67870;DHT22;54673;52.262;6.830;2023-02-12T06:41:15;14.90;54.60
67870;DHT22;54673;52.262;6.830;2023-02-12T06:43:41;14.80;54.60
67870;DHT22;54673;52.262;6.830;2023-02-12T06:46:07;14.80;54.60
67870;DHT22;54673;52.262;6.830;2023-02-12T06:48:33;14.80;54.60
67870;DHT22;54673;52.262;6.830;2023-02-12T06:51:16;14.80;54.60
67870;DHT22;54673;52.262;6.830;2023-02-12T06:53:43;14.80;54.60
67870;DHT22;54673;52.262;6.830;2023-02-12T06:56:10;14.80;54.60
67870;DHT22;54673;52.262;6.830;2023-02-12T06:58:38;14.80;54.60
67870;DHT22;54673;52.262;6.830;2023-02-12T07:01:16;14.80;54.70
67870;DHT22;54673;52.262;6.830;2023-02-12T07:03:47;14.80;54.70
67870;DHT22;54673;52.262;6.830;2023-02-12T07:06:13;14.80;54.70
67870;DHT22;54673;52.262;6.830;2023-02-12T07:08:39;14.80;54.60
67870;DHT22;54673;52.262;6.830;2023-02-12T07:11:05;14.80;54.60
67870;DHT22;54673;52.262;6.830;2023-02-12T07:13:30;14.80;54.50
67870;DHT22;54673;52.262;6.830;2023-02-12T07:16:05;14.80;54.60
67870;DHT22;54673;52.262;6.830;2023-02-12T07:18:35;14.80;54.70
67870;DHT22;54673;52.262;6.830;2023-02-12T07:21:01;14.80;54.50
67870;DHT22;54673;52.262;6.830;2023-02-12T07:23:27;14.80;54.50
67870;DHT22;54673;52.262;6.830;2023-02-12T07:25:57;14.80;54.50
67870;DHT22;54673;52.262;6.830;2023-02-12T07:28:23;14.80;54.50
67870;DHT22;54673;52.262;6.830;2023-02-12T07:30:49;14.80;54.50
67870;DHT22;54673;52.262;6.830;2023-02-12T07:33:15;14.80;55.40
67870;DHT22;54673;52.262;6.830;2023-02-12T07:35:40;14.80;54.50
67870;DHT22;54673;52.262;6.830;2023-02-12T07:38:06;14.80;54.50
67870;DHT22;54673;52.262;6.830;2023-02-12T07:40:31;14.80;54.50
67870;DHT22;54673;52.262;6.830;2023-02-12T07:42:57;14.80;54.50
67870;DHT22;54673;52.262;6.830;2023-02-12T07:45:23;14.80;54.50
67870;DHT22;54673;52.262;6.830;2023-02-12T07:47:49;15.30;54.90
67870;DHT22;54673;52.262;6.830;2023-02-12T07:50:15;14.80;54.50
67870;DHT22;54673;52.262;6.830;2023-02-12T07:52:40;14.80;54.50
67870;DHT22;54673;52.262;6.830;2023-02-12T07:55:06;14.80;54.50
67870;DHT22;54673;52.262;6.830;2023-02-12T07:57:34;14.80;54.70
67870;DHT22;54673;52.262;6.830;2023-02-12T07:59:59;14.80;54.70
67870;DHT22;54673;52.262;6.830;2023-02-12T08:02:25;14.80;54.70
67870;DHT22;54673;52.262;6.830;2023-02-12T08:04:55;14.90;54.90
67870;DHT22;54673;52.262;6.830;2023-02-12T08:07:21;14.80;54.90
67870;DHT22;54673;52.262;6.830;2023-02-12T08:09:46;15.30;55.30
67870;DHT22;54673;52.262;6.830;2023-02-12T08:12:12;14.80;55.00
67870;DHT22;54673;52.262;6.830;2023-02-12T08:14:38;14.80;55.00
67870;DHT22;54673;52.262;6.830;2023-02-12T08:17:03;14.90;55.10
67870;DHT22;54673;52.262;6.830;2023-02-12T08:19:29;14.90;55.10
67870;DHT22;54673;52.262;6.830;2023-02-12T08:21:55;14.80;55.00
67870;DHT22;54673;52.262;6.830;2023-02-12T08:24:22;14.80;55.10
67870;DHT22;54673;52.262;6.830;2023-02-12T08:26:48;14.80;55.00
67870;DHT22;54673;52.262;6.830;2023-02-12T08:29:17;14.90;55.10
67870;DHT22;54673;52.262;6.830;2023-02-12T08:31:45;15.00;55.10
67870;DHT22;54673;52.262;6.830;2023-02-12T08:34:20;14.90;55.00
67870;DHT22;54673;52.262;6.830;2023-02-12T08:36:47;14.90;55.50
67870;DHT22;54673;52.262;6.830;2023-02-12T08:39:14;14.90;55.10
67870;DHT22;54673;52.262;6.830;2023-02-12T08:41:39;14.90;55.00
67870;DHT22;54673;52.262;6.830;2023-02-12T08:44:07;14.90;55.00
67870;DHT22;54673;52.262;6.830;2023-02-12T08:46:38;14.90;55.00
67870;DHT22;54673;52.262;6.830;2023-02-12T08:49:06;14.90;55.00
67870;DHT22;54673;52.262;6.830;2023-02-12T08:51:35;14.90;55.10
67870;DHT22;54673;52.262;6.830;2023-02-12T08:54:04;14.90;55.20
67870;DHT22;54673;52.262;6.830;2023-02-12T08:56:32;14.90;55.10
67870;DHT22;54673;52.262;6.830;2023-02-12T08:58:59;14.90;55.10
67870;DHT22;54673;52.262;6.830;2023-02-12T09:01:27;14.90;55.10
67870;DHT22;54673;52.262;6.830;2023-02-12T09:03:53;14.90;55.20
67870;DHT22;54673;52.262;6.830;2023-02-12T09:06:20;14.90;55.10
67870;DHT22;54673;52.262;6.830;2023-02-12T09:08:46;14.90;55.10
67870;DHT22;54673;52.262;6.830;2023-02-12T09:11:15;14.90;55.10
67870;DHT22;54673;52.262;6.830;2023-02-12T09:13:43;14.90;55.10
67870;DHT22;54673;52.262;6.830;2023-02-12T09:16:08;15.00;55.10
67870;DHT22;54673;52.262;6.830;2023-02-12T09:18:35;14.90;55.10
67870;DHT22;54673;52.262;6.830;2023-02-12T09:21:06;14.90;56.00
67870;DHT22;54673;52.262;6.830;2023-02-12T09:23:32;14.90;55.20
67870;DHT22;54673;52.262;6.830;2023-02-12T09:25:57;14.90;55.30
67870;DHT22;54673;52.262;6.830;2023-02-12T09:28:23;14.80;55.50
67870;DHT22;54673;52.262;6.830;2023-02-12T09:30:49;14.80;55.80
67870;DHT22;54673;52.262;6.830;2023-02-12T09:33:14;14.80;55.50
67870;DHT22;54673;52.262;6.830;2023-02-12T09:35:40;14.80;55.50
67870;DHT22;54673;52.262;6.830;2023-02-12T09:38:06;14.90;55.60
67870;DHT22;54673;52.262;6.830;2023-02-12T09:43:43;14.90;55.50
67870;DHT22;54673;52.262;6.830;2023-02-12T09:46:30;14.90;55.50
67870;DHT22;54673;52.262;6.830;2023-02-12T09:52:03;14.80;55.80
67870;DHT22;54673;52.262;6.830;2023-02-12T09:54:36;14.70;56.10
67870;DHT22;54673;52.262;6.830;2023-02-12T09:57:06;15.20;56.50
67870;DHT22;54673;52.262;6.830;2023-02-12T09:59:53;14.70;56.40
67870;DHT22;54673;52.262;6.830;2023-02-12T10:02:21;14.70;56.30
67870;DHT22;54673;52.262;6.830;2023-02-12T10:04:49;14.70;56.40
67870;DHT22;54673;52.262;6.830;2023-02-12T10:07:24;14.80;56.30
67870;DHT22;54673;52.262;6.830;2023-02-12T10:12:50;14.80;56.20
67870;DHT22;54673;52.262;6.830;2023-02-12T10:15:23;14.80;56.00
67870;DHT22;54673;52.262;6.830;2023-02-12T10:18:06;14.80;56.00
67870;DHT22;54673;52.262;6.830;2023-02-12T10:20:53;14.80;56.00
67870;DHT22;54673;52.262;6.830;2023-02-12T10:23:57;16.10;56.80
67870;DHT22;54673;52.262;6.830;2023-02-12T10:26:27;14.80;56.30
67870;DHT22;54673;52.262;6.830;2023-02-12T10:28:58;14.80;56.30
67870;DHT22;54673;52.262;6.830;2023-02-12T10:31:36;14.70;56.00
67870;DHT22;54673;52.262;6.830;2023-02-12T10:34:16;14.70;56.10
67870;DHT22;54673;52.262;6.830;2023-02-12T10:36:44;14.80;56.20
67870;DHT22;54673;52.262;6.830;2023-02-12T10:44:27;14.90;56.60
67870;DHT22;54673;52.262;6.830;2023-02-12T10:46:54;14.90;57.00
67870;DHT22;54673;52.262;6.830;2023-02-12T10:49:20;15.00;56.80
67870;DHT22;54673;52.262;6.830;2023-02-12T10:54:43;15.10;56.70
67870;DHT22;54673;52.262;6.830;2023-02-12T10:57:19;15.20;56.60
67870;DHT22;54673;52.262;6.830;2023-02-12T10:59:47;15.20;56.30
67870;DHT22;54673;52.262;6.830;2023-02-12T11:02:29;15.30;56.30
67870;DHT22;54673;52.262;6.830;2023-02-12T11:04:57;15.30;56.30
67870;DHT22;54673;52.262;6.830;2023-02-12T11:07:24;15.40;56.20
67870;DHT22;54673;52.262;6.830;2023-02-12T11:09:52;15.40;56.00
67870;DHT22;54673;52.262;6.830;2023-02-12T11:12:35;15.30;56.00
67870;DHT22;54673;52.262;6.830;2023-02-12T11:18:00;15.50;56.10
67870;DHT22;54673;52.262;6.830;2023-02-12T11:20:37;15.50;55.90
67870;DHT22;54673;52.262;6.830;2023-02-12T11:23:05;15.60;56.10
67870;DHT22;54673;52.262;6.830;2023-02-12T11:25:33;15.50;55.80
67870;DHT22;54673;52.262;6.830;2023-02-12T11:28:04;15.60;56.00
67870;DHT22;54673;52.262;6.830;2023-02-12T11:30:30;15.60;55.90
67870;DHT22;54673;52.262;6.830;2023-02-12T11:35:56;15.70;55.80
67870;DHT22;54673;52.262;6.830;2023-02-12T11:38:35;15.70;56.20
67870;DHT22;54673;52.262;6.830;2023-02-12T11:41:22;15.80;56.30
67870;DHT22;54673;52.262;6.830;2023-02-12T11:43:49;15.80;56.00
67870;DHT22;54673;52.262;6.830;2023-02-12T11:46:20;15.80;56.00
67870;DHT22;54673;52.262;6.830;2023-02-12T11:48:46;15.80;56.00
67870;DHT22;54673;52.262;6.830;2023-02-12T11:51:25;15.90;56.00
67870;DHT22;54673;52.262;6.830;2023-02-12T11:53:55;15.90;56.10
67870;DHT22;54673;52.262;6.830;2023-02-12T11:56:22;15.70;55.70
67870;DHT22;54673;52.262;6.830;2023-02-12T11:58:49;17.00;56.20
67870;DHT22;54673;52.262;6.830;2023-02-12T12:01:29;15.90;55.80
67870;DHT22;54673;52.262;6.830;2023-02-12T12:04:07;15.90;55.70
67870;DHT22;54673;52.262;6.830;2023-02-12T12:06:53;15.90;55.60
67870;DHT22;54673;52.262;6.830;2023-02-12T12:12:22;16.00;55.70
67870;DHT22;54673;52.262;6.830;2023-02-12T12:14:58;15.90;55.90
67870;DHT22;54673;52.262;6.830;2023-02-12T12:17:55;15.80;55.80
67870;DHT22;54673;52.262;6.830;2023-02-12T12:20:52;15.80;55.80
67870;DHT22;54673;52.262;6.830;2023-02-12T12:23:23;15.80;55.80
67870;DHT22;54673;52.262;6.830;2023-02-12T12:25:53;15.70;55.80
67870;DHT22;54673;52.262;6.830;2023-02-12T12:36:08;15.60;55.80
67870;DHT22;54673;52.262;6.830;2023-02-12T12:44:48;15.50;55.80
67870;DHT22;54673;52.262;6.830;2023-02-12T12:50:06;15.50;55.80
67870;DHT22;54673;52.262;6.830;2023-02-12T12:52:45;15.50;56.80
67870;DHT22;54673;52.262;6.830;2023-02-12T13:05:57;15.40;55.90
67870;DHT22;54673;52.262;6.830;2023-02-12T13:09:02;15.40;55.90
67870;DHT22;54673;52.262;6.830;2023-02-12T13:11:50;15.40;55.90
67870;DHT22;54673;52.262;6.830;2023-02-12T13:19:59;15.40;55.90
67870;DHT22;54673;52.262;6.830;2023-02-12T13:27:58;15.40;55.90
67870;DHT22;54673;52.262;6.830;2023-02-12T13:30:30;15.30;55.90
67870;DHT22;54673;52.262;6.830;2023-02-12T13:35:28;15.30;55.90
67870;DHT22;54673;52.262;6.830;2023-02-12T13:37:55;15.30;56.00
67870;DHT22;54673;52.262;6.830;2023-02-12T13:40:26;15.30;56.00
67870;DHT22;54673;52.262;6.830;2023-02-12T13:46:03;15.30;55.90
67870;DHT22;54673;52.262;6.830;2023-02-12T13:56:41;15.40;56.30
67870;DHT22;54673;52.262;6.830;2023-02-12T14:01:55;15.50;56.30
67870;DHT22;54673;52.262;6.830;2023-02-12T14:04:42;15.60;56.30
67870;DHT22;54673;52.262;6.830;2023-02-12T14:07:12;15.60;56.20
67870;DHT22;54673;52.262;6.830;2023-02-12T14:09:41;15.70;56.40
67870;DHT22;54673;52.262;6.830;2023-02-12T14:12:29;15.70;56.70
67870;DHT22;54673;52.262;6.830;2023-02-12T14:20:05;15.70;56.40
67870;DHT22;54673;52.262;6.830;2023-02-12T14:24:58;15.70;56.60
67870;DHT22;54673;52.262;6.830;2023-02-12T14:37:58;15.90;56.50
67870;DHT22;54673;52.262;6.830;2023-02-12T14:40:37;16.00;56.70
67870;DHT22;54673;52.262;6.830;2023-02-12T14:43:28;15.90;56.70
67870;DHT22;54673;52.262;6.830;2023-02-12T14:45:57;15.90;56.50
67870;DHT22;54673;52.262;6.830;2023-02-12T14:53:54;15.90;56.80
67870;DHT22;54673;52.262;6.830;2023-02-12T14:56:21;16.00;56.50
67870;DHT22;54673;52.262;6.830;2023-02-12T14:58:48;16.00;56.70
67870;DHT22;54673;52.262;6.830;2023-02-12T15:01:15;16.00;56.70
67870;DHT22;54673;52.262;6.830;2023-02-12T15:03:45;16.00;56.70
67870;DHT22;54673;52.262;6.830;2023-02-12T15:06:16;16.10;56.70
67870;DHT22;54673;52.262;6.830;2023-02-12T15:08:47;16.00;56.80
67870;DHT22;54673;52.262;6.830;2023-02-12T15:14:11;16.10;56.90
67870;DHT22;54673;52.262;6.830;2023-02-12T15:19:25;16.10;56.50
67870;DHT22;54673;52.262;6.830;2023-02-12T15:21:54;16.10;56.50
67870;DHT22;54673;52.262;6.830;2023-02-12T15:24:23;16.10;56.40
67870;DHT22;54673;52.262;6.830;2023-02-12T15:26:51;16.20;56.40
67870;DHT22;54673;52.262;6.830;2023-02-12T15:29:27;16.20;56.40
67870;DHT22;54673;52.262;6.830;2023-02-12T15:31:56;16.20;56.40
67870;DHT22;54673;52.262;6.830;2023-02-12T15:34:25;16.20;56.60
67870;DHT22;54673;52.262;6.830;2023-02-12T15:36:55;16.10;56.60
67870;DHT22;54673;52.262;6.830;2023-02-12T15:39:21;16.20;56.70
67870;DHT22;54673;52.262;6.830;2023-02-12T15:41:49;16.20;56.60
67870;DHT22;54673;52.262;6.830;2023-02-12T15:44:22;16.20;56.80
67870;DHT22;54673;52.262;6.830;2023-02-12T15:47:08;16.20;56.70
67870;DHT22;54673;52.262;6.830;2023-02-12T15:49:36;16.20;56.70
67870;DHT22;54673;52.262;6.830;2023-02-12T15:52:13;16.20;56.70
67870;DHT22;54673;52.262;6.830;2023-02-12T15:54:40;16.20;57.00
67870;DHT22;54673;52.262;6.830;2023-02-12T15:57:10;16.20;56.70
67870;DHT22;54673;52.262;6.830;2023-02-12T15:59:36;16.20;56.90
67870;DHT22;54673;52.262;6.830;2023-02-12T16:02:02;16.20;56.80
67870;DHT22;54673;52.262;6.830;2023-02-12T16:04:30;16.20;57.00
67870;DHT22;54673;52.262;6.830;2023-02-12T16:06:57;16.20;56.90
67870;DHT22;54673;52.262;6.830;2023-02-12T16:09:32;16.20;56.90
67870;DHT22;54673;52.262;6.830;2023-02-12T16:12:02;16.20;57.00
67870;DHT22;54673;52.262;6.830;2023-02-12T16:14:39;16.20;57.00
67870;DHT22;54673;52.262;6.830;2023-02-12T16:17:27;16.20;57.00
67870;DHT22;54673;52.262;6.830;2023-02-12T16:22:42;16.10;57.10
67870;DHT22;54673;52.262;6.830;2023-02-12T16:27:40;16.10;57.20
67870;DHT22;54673;52.262;6.830;2023-02-12T16:30:29;16.10;57.30
67870;DHT22;54673;52.262;6.830;2023-02-12T16:32:56;16.10;57.20
67870;DHT22;54673;52.262;6.830;2023-02-12T16:35:31;16.10;57.20
67870;DHT22;54673;52.262;6.830;2023-02-12T16:38:47;16.10;57.30
67870;DHT22;54673;52.262;6.830;2023-02-12T16:43:39;16.10;57.30
67870;DHT22;54673;52.262;6.830;2023-02-12T16:46:06;16.10;57.30
67870;DHT22;54673;52.262;6.830;2023-02-12T16:48:46;16.10;57.50
67870;DHT22;54673;52.262;6.830;2023-02-12T16:51:27;16.10;57.30
67870;DHT22;54673;52.262;6.830;2023-02-12T16:53:55;16.10;57.40
67870;DHT22;54673;52.262;6.830;2023-02-12T16:56:23;16.10;57.30
67870;DHT22;54673;52.262;6.830;2023-02-12T16:58:56;16.10;57.90
67870;DHT22;54673;52.262;6.830;2023-02-12T17:01:27;16.10;57.70
67870;DHT22;54673;52.262;6.830;2023-02-12T17:03:54;16.10;57.70
67870;DHT22;54673;52.262;6.830;2023-02-12T17:06:22;16.10;57.60
67870;DHT22;54673;52.262;6.830;2023-02-12T17:08:49;16.10;57.40
67870;DHT22;54673;52.262;6.830;2023-02-12T17:11:15;16.10;56.90
67870;DHT22;54673;52.262;6.830;2023-02-12T17:13:46;16.00;57.00
67870;DHT22;54673;52.262;6.830;2023-02-12T17:16:13;16.00;56.90
67870;DHT22;54673;52.262;6.830;2023-02-12T17:18:39;16.00;56.90
67870;DHT22;54673;52.262;6.830;2023-02-12T17:21:09;16.00;56.90
67870;DHT22;54673;52.262;6.830;2023-02-12T17:23:39;15.90;56.80
67870;DHT22;54673;52.262;6.830;2023-02-12T17:26:05;15.90;56.80
67870;DHT22;54673;52.262;6.830;2023-02-12T17:28:32;15.90;56.80
67870;DHT22;54673;52.262;6.830;2023-02-12T17:30:58;16.50;57.20
67870;DHT22;54673;52.262;6.830;2023-02-12T17:33:27;15.90;56.90
67870;DHT22;54673;52.262;6.830;2023-02-12T17:35:52;15.90;57.10
67870;DHT22;54673;52.262;6.830;2023-02-12T17:38:18;15.80;57.20
67870;DHT22;54673;52.262;6.830;2023-02-12T17:40:43;15.90;57.40
67870;DHT22;54673;52.262;6.830;2023-02-12T17:43:09;15.80;57.40
67870;DHT22;54673;52.262;6.830;2023-02-12T17:45:39;15.80;57.50
67870;DHT22;54673;52.262;6.830;2023-02-12T17:48:07;15.80;57.40
67870;DHT22;54673;52.262;6.830;2023-02-12T17:50:33;15.80;57.50
67870;DHT22;54673;52.262;6.830;2023-02-12T17:52:58;15.80;57.60
67870;DHT22;54673;52.262;6.830;2023-02-12T17:55:24;15.80;57.70
67870;DHT22;54673;52.262;6.830;2023-02-12T17:57:53;15.80;57.60
67870;DHT22;54673;52.262;6.830;2023-02-12T18:00:20;15.80;57.60
67870;DHT22;54673;52.262;6.830;2023-02-12T18:02:46;15.70;57.60
67870;DHT22;54673;52.262;6.830;2023-02-12T18:05:12;15.80;57.70
67870;DHT22;54673;52.262;6.830;2023-02-12T18:07:37;15.80;57.70
67870;DHT22;54673;52.262;6.830;2023-02-12T18:10:04;15.80;57.70